createdAt,value
2023-05-19T00:00:00.578Z,40.87
2023-05-19T00:02:34.194Z,41.17
2023-05-19T00:05:05.373Z,41.31
2023-05-19T00:07:41.597Z,41.19
2023-05-19T00:10:13.522Z,41.35
2023-05-19T00:12:45.462Z,41.19
2023-05-19T00:15:16.882Z,41.36
2023-05-19T00:17:47.477Z,41.37
2023-05-19T00:20:18.070Z,41.56
2023-05-19T00:22:51.568Z,41.19
2023-05-19T00:25:21.746Z,41.45
2023-05-19T00:27:52.030Z,41.40
2023-05-19T00:30:23.296Z,41.60
2023-05-19T00:32:54.312Z,41.48
2023-05-19T00:35:25.970Z,41.61
2023-05-19T00:37:57.795Z,41.66
2023-05-19T00:40:29.856Z,41.71
2023-05-19T00:43:00.592Z,41.46
2023-05-19T00:45:31.739Z,41.71
2023-05-19T00:48:02.006Z,41.49
2023-05-19T00:50:33.081Z,41.74
2023-05-19T00:53:05.585Z,41.58
2023-05-19T00:55:40.944Z,41.62
2023-05-19T00:58:14.854Z,41.71
2023-05-19T01:00:46.121Z,41.65
2023-05-19T01:03:21.013Z,42.02
2023-05-19T01:05:53.956Z,41.67
2023-05-19T01:11:11.236Z,41.90
2023-05-19T01:13:42.298Z,41.72
2023-05-19T01:16:20.993Z,41.66
2023-05-19T01:19:04.283Z,41.76
2023-05-19T01:22:24.151Z,41.58
2023-05-19T01:25:40.369Z,41.64
2023-05-19T01:28:51.567Z,41.64
2023-05-19T01:31:51.598Z,42.04
2023-05-19T01:34:26.009Z,41.76
2023-05-19T01:37:00.281Z,41.39
2023-05-19T01:39:31.849Z,41.79
2023-05-19T01:42:04.327Z,41.76
2023-05-19T01:44:36.096Z,41.67
2023-05-19T01:47:09.283Z,41.89
2023-05-19T01:49:39.469Z,41.66
2023-05-19T01:52:10.610Z,41.81
2023-05-19T01:54:40.882Z,41.83
2023-05-19T01:57:22.652Z,41.97
2023-05-19T02:00:08.258Z,41.66
2023-05-19T02:02:58.208Z,41.80
2023-05-19T02:05:40.653Z,41.70
2023-05-19T02:08:22.302Z,41.79
2023-05-19T02:10:59.850Z,41.38
2023-05-19T02:13:39.118Z,41.96
2023-05-19T02:16:10.293Z,41.79
2023-05-19T02:18:45.872Z,41.84
2023-05-19T02:21:16.637Z,41.82
2023-05-19T02:23:46.893Z,41.76
2023-05-19T02:26:16.968Z,42.09
2023-05-19T02:28:47.227Z,41.64
2023-05-19T02:31:17.044Z,41.80
2023-05-19T02:33:48.957Z,41.73
2023-05-19T02:36:19.678Z,41.83
2023-05-19T02:38:50.002Z,41.91
2023-05-19T02:41:20.393Z,41.90
2023-05-19T02:43:50.651Z,41.90
2023-05-19T02:46:20.973Z,42.04
2023-05-19T02:48:55.016Z,42.01
2023-05-19T02:51:25.326Z,41.83
2023-05-19T02:53:55.326Z,41.96
2023-05-19T02:56:25.317Z,42.15
2023-05-19T02:58:55.722Z,42.08
2023-05-19T03:01:25.687Z,42.31
2023-05-19T03:03:58.289Z,42.16
2023-05-19T03:06:28.743Z,42.06
2023-05-19T03:08:59.005Z,42.10
2023-05-19T03:11:30.058Z,42.14
2023-05-19T03:14:01.287Z,42.11
2023-05-19T03:16:31.030Z,42.08
2023-05-19T03:19:03.520Z,42.22
2023-05-19T03:21:35.115Z,42.18
2023-05-19T03:24:04.920Z,42.18
2023-05-19T03:26:35.082Z,42.30
2023-05-19T03:29:04.816Z,42.34
2023-05-19T03:31:35.256Z,42.18
2023-05-19T03:34:07.083Z,42.25
2023-05-19T03:36:40.005Z,42.39
2023-05-19T03:39:10.576Z,42.39
2023-05-19T03:41:40.610Z,42.43
2023-05-19T03:44:11.016Z,42.37
2023-05-19T03:46:41.057Z,42.60
2023-05-19T03:49:14.290Z,42.53
2023-05-19T03:51:44.719Z,42.58
2023-05-19T03:54:14.832Z,42.60
2023-05-19T03:56:47.678Z,42.36
2023-05-19T03:59:17.981Z,42.38
2023-05-19T04:01:48.227Z,42.49
2023-05-19T04:04:20.406Z,42.49
2023-05-19T04:06:51.137Z,42.42
2023-05-19T04:09:24.455Z,42.55
2023-05-19T04:11:57.760Z,42.31
2023-05-19T04:14:27.854Z,42.55
2023-05-19T04:16:58.289Z,42.71
2023-05-19T04:19:30.983Z,42.58
2023-05-19T04:22:01.587Z,42.23
2023-05-19T04:24:31.778Z,42.51
2023-05-19T04:27:05.170Z,42.63
2023-05-19T04:29:36.417Z,42.49
2023-05-19T04:32:08.383Z,42.58
2023-05-19T04:34:45.568Z,42.66
2023-05-19T04:38:01.582Z,42.67
2023-05-19T04:40:32.548Z,42.80
2023-05-19T04:43:10.631Z,42.77
2023-05-19T04:45:48.135Z,42.58
2023-05-19T04:48:22.081Z,42.73
2023-05-19T04:50:57.222Z,42.64
2023-05-19T04:57:09.131Z,42.92
2023-05-19T04:59:39.235Z,42.89
2023-05-19T05:02:10.270Z,42.98
2023-05-19T05:04:43.950Z,42.82
2023-05-19T05:07:23.545Z,43.06
2023-05-19T05:09:53.900Z,42.94
2023-05-19T05:12:25.670Z,42.96
2023-05-19T05:14:56.521Z,42.89
2023-05-19T05:17:27.858Z,43.11
2023-05-19T05:19:58.557Z,43.02
2023-05-19T05:22:32.401Z,42.81
2023-05-19T05:25:04.269Z,43.02
2023-05-19T05:27:35.049Z,42.88
2023-05-19T05:30:05.662Z,43.12
2023-05-19T05:32:35.463Z,43.00
2023-05-19T05:35:06.022Z,43.00
2023-05-19T05:37:38.317Z,43.03
2023-05-19T05:40:10.391Z,43.07
2023-05-19T05:42:40.621Z,42.79
2023-05-19T05:45:11.825Z,43.15
2023-05-19T05:47:43.015Z,43.01
2023-05-19T05:50:14.608Z,43.17
2023-05-19T05:52:50.232Z,43.18
2023-05-19T05:55:21.881Z,43.19
2023-05-19T05:57:53.746Z,43.22
2023-05-19T06:00:25.592Z,43.12
2023-05-19T06:02:56.515Z,43.10
2023-05-19T06:05:26.872Z,43.31
2023-05-19T06:07:59.296Z,43.18
2023-05-19T06:10:30.618Z,43.21
2023-05-19T06:13:01.737Z,43.35
2023-05-19T06:15:31.445Z,43.42
2023-05-19T06:18:02.346Z,43.30
2023-05-19T06:20:32.962Z,43.25
2023-05-19T06:23:06.652Z,43.24
2023-05-19T06:25:37.068Z,43.38
2023-05-19T06:28:07.311Z,43.20
2023-05-19T06:30:39.611Z,43.40
2023-05-19T06:33:10.012Z,43.45
2023-05-19T06:35:40.372Z,43.49
2023-05-19T06:38:12.996Z,43.29
2023-05-19T06:40:44.095Z,43.46
2023-05-19T06:43:13.941Z,43.35
2023-05-19T06:45:43.968Z,43.15
2023-05-19T06:48:14.038Z,43.38
2023-05-19T06:50:44.364Z,43.66
2023-05-19T06:53:16.878Z,43.13
2023-05-19T06:55:57.892Z,43.15
2023-05-19T06:58:29.704Z,43.65
2023-05-19T07:00:59.718Z,43.19
2023-05-19T07:03:31.440Z,43.12
2023-05-19T07:06:02.227Z,43.32
2023-05-19T07:08:35.090Z,43.16
2023-05-19T07:11:05.481Z,43.38
2023-05-19T07:13:35.923Z,42.97
2023-05-19T07:16:06.719Z,42.88
2023-05-19T07:18:36.999Z,42.77
2023-05-19T07:21:07.957Z,42.70
2023-05-19T07:23:40.692Z,42.88
2023-05-19T07:26:11.332Z,42.79
2023-05-19T07:28:42.981Z,42.59
2023-05-19T07:31:13.826Z,42.89
2023-05-19T07:33:44.240Z,42.33
2023-05-19T07:36:14.699Z,42.63
2023-05-19T07:38:47.522Z,42.53
2023-05-19T07:41:17.662Z,42.52
2023-05-19T07:43:48.011Z,42.54
2023-05-19T07:46:18.705Z,42.53
2023-05-19T07:48:49.194Z,42.46
2023-05-19T07:51:19.826Z,42.24
2023-05-19T07:53:52.257Z,42.31
2023-05-19T07:56:23.286Z,41.96
2023-05-19T07:58:52.900Z,41.75
2023-05-19T08:01:23.481Z,41.70
2023-05-19T08:03:53.823Z,41.91
2023-05-19T08:06:25.640Z,41.94
2023-05-19T08:08:58.646Z,42.08
2023-05-19T08:11:29.335Z,42.15
2023-05-19T08:14:06.398Z,41.46
2023-05-19T08:16:36.331Z,41.31
2023-05-19T08:19:07.980Z,41.44
2023-05-19T08:21:38.658Z,41.40
2023-05-19T08:24:12.084Z,41.73
2023-05-19T08:26:42.411Z,41.73
2023-05-19T08:29:13.295Z,41.86
2023-05-19T08:31:43.805Z,41.25
2023-05-19T08:34:14.090Z,41.59
2023-05-19T08:36:45.783Z,41.65
2023-05-19T08:39:20.201Z,41.49
2023-05-19T08:41:50.188Z,41.33
2023-05-19T08:44:20.057Z,41.20
2023-05-19T08:46:53.456Z,41.62
2023-05-19T08:49:30.435Z,40.97
2023-05-19T08:52:17.528Z,41.03
2023-05-19T08:54:57.168Z,41.05
2023-05-19T08:57:30.125Z,41.43
2023-05-19T09:00:01.888Z,41.43
2023-05-19T09:02:32.535Z,41.21
2023-05-19T09:05:03.563Z,41.35
2023-05-19T09:07:35.246Z,41.03
2023-05-19T09:10:09.886Z,41.07
2023-05-19T09:12:40.061Z,40.75
2023-05-19T09:15:12.655Z,40.66
2023-05-19T09:17:45.552Z,41.05
2023-05-19T09:20:17.374Z,41.23
2023-05-19T09:22:50.009Z,41.07
2023-05-19T09:25:26.946Z,40.62
2023-05-19T09:27:59.017Z,40.64
2023-05-19T09:30:29.329Z,41.30
2023-05-19T09:32:59.616Z,41.43
2023-05-19T09:35:30.104Z,41.46
2023-05-19T09:38:00.417Z,41.32
2023-05-19T09:40:35.735Z,41.32
2023-05-19T09:43:11.541Z,41.17
2023-05-19T09:45:42.012Z,41.21
2023-05-19T09:48:14.151Z,41.32
2023-05-19T09:50:48.395Z,40.58
2023-05-19T09:53:20.886Z,41.18
2023-05-19T09:55:57.988Z,41.19
2023-05-19T09:58:28.946Z,40.98
2023-05-19T10:00:59.518Z,41.23
2023-05-19T10:03:31.194Z,41.07
2023-05-19T10:06:02.946Z,41.08
2023-05-19T10:08:33.486Z,41.11
2023-05-19T10:11:06.708Z,41.05
2023-05-19T10:13:41.621Z,40.87
2023-05-19T10:16:13.026Z,40.80
2023-05-19T10:18:44.472Z,40.82
2023-05-19T10:21:17.093Z,41.02
2023-05-19T10:23:48.055Z,40.36
2023-05-19T10:26:22.057Z,40.24
2023-05-19T10:28:53.532Z,40.49
2023-05-19T10:31:26.607Z,40.18
2023-05-19T10:34:23.755Z,40.16
2023-05-19T10:37:10.772Z,40.51
2023-05-19T10:39:46.842Z,39.85
2023-05-19T10:42:38.836Z,40.23
2023-05-19T10:45:20.832Z,40.27
2023-05-19T10:47:52.868Z,40.58
2023-05-19T10:50:23.591Z,40.37
2023-05-19T10:53:01.446Z,39.89
2023-05-19T10:55:55.037Z,40.38
2023-05-19T10:59:00.275Z,40.60
2023-05-19T11:01:43.847Z,39.97
2023-05-19T11:04:19.732Z,40.66
2023-05-19T11:06:55.347Z,40.24
2023-05-19T11:09:37.947Z,40.02
2023-05-19T11:12:14.113Z,39.88
2023-05-19T11:14:51.264Z,39.92
2023-05-19T11:17:26.244Z,40.21
2023-05-19T11:20:05.070Z,40.26
2023-05-19T11:22:43.589Z,40.23
2023-05-19T11:25:18.441Z,40.07
2023-05-19T11:27:54.711Z,39.95
2023-05-19T11:30:32.783Z,39.71
2023-05-19T11:33:04.437Z,39.71
2023-05-19T11:35:39.827Z,40.27
2023-05-19T11:38:13.223Z,39.83
2023-05-19T11:40:50.372Z,39.87
2023-05-19T11:43:21.515Z,39.80
2023-05-19T11:45:59.861Z,39.58
2023-05-19T11:48:34.073Z,39.52
2023-05-19T11:51:08.588Z,39.92
2023-05-19T11:53:42.471Z,39.39
2023-05-19T11:56:17.453Z,39.98
2023-05-19T11:58:50.993Z,39.63
2023-05-19T12:01:33.427Z,39.92
2023-05-19T12:04:04.383Z,39.83
2023-05-19T12:06:35.091Z,39.36
2023-05-19T12:09:10.868Z,39.78
2023-05-19T12:11:42.117Z,39.72
2023-05-19T12:14:15.222Z,39.77
2023-05-19T12:16:49.068Z,39.86
2023-05-19T12:19:20.697Z,39.29
2023-05-19T12:21:52.003Z,39.61
2023-05-19T12:24:26.835Z,39.26
2023-05-19T12:27:09.664Z,39.47
2023-05-19T12:29:41.558Z,39.86
2023-05-19T12:32:14.820Z,39.60
2023-05-19T12:34:44.894Z,39.37
2023-05-19T12:37:14.866Z,39.41
2023-05-19T12:39:46.873Z,39.46
2023-05-19T12:42:19.585Z,39.59
2023-05-19T12:44:52.139Z,39.86
2023-05-19T12:47:23.571Z,39.09
2023-05-19T12:49:58.855Z,39.68
2023-05-19T12:52:31.726Z,39.79
2023-05-19T12:55:03.003Z,39.56
2023-05-19T12:57:34.268Z,39.41
2023-05-19T13:00:08.928Z,39.63
2023-05-19T13:03:02.153Z,39.44
2023-05-19T13:05:35.586Z,39.57
2023-05-19T13:08:10.593Z,39.49
2023-05-19T13:10:44.071Z,39.55
2023-05-19T13:13:19.937Z,39.33
2023-05-19T13:15:51.137Z,39.48
2023-05-19T13:18:23.881Z,39.19
2023-05-19T13:20:55.296Z,39.56
2023-05-19T13:23:26.794Z,39.93
2023-05-19T13:25:57.298Z,39.52
2023-05-19T13:28:28.172Z,39.44
2023-05-19T13:30:59.922Z,39.66
2023-05-19T13:33:31.922Z,39.85
2023-05-19T13:36:01.707Z,39.58
2023-05-19T13:38:32.032Z,39.49
2023-05-19T13:41:02.508Z,39.82
2023-05-19T13:43:33.257Z,39.59
2023-05-19T13:46:03.640Z,39.75
2023-05-19T13:48:36.504Z,39.45
2023-05-19T13:51:07.286Z,39.90
2023-05-19T13:53:37.820Z,39.83
2023-05-19T13:56:10.035Z,39.78
2023-05-19T13:58:40.139Z,39.24
2023-05-19T14:01:10.702Z,39.35
2023-05-19T14:03:43.513Z,39.48
2023-05-19T14:06:14.143Z,39.73
2023-05-19T14:08:44.491Z,39.39
2023-05-19T14:11:22.057Z,39.55
2023-05-19T14:13:53.084Z,39.75
2023-05-19T14:16:26.889Z,39.53
2023-05-19T14:18:59.597Z,39.51
2023-05-19T14:21:30.190Z,39.91
2023-05-19T14:24:00.228Z,40.06
2023-05-19T14:26:30.819Z,39.73
2023-05-19T14:31:32.676Z,39.66
2023-05-19T14:34:18.238Z,39.75
2023-05-19T14:36:48.952Z,39.60
2023-05-19T14:39:21.535Z,39.76
2023-05-19T14:41:53.325Z,39.33
2023-05-19T14:44:23.940Z,39.88
2023-05-19T14:46:53.932Z,40.10
2023-05-19T14:49:26.483Z,39.78
2023-05-19T14:51:56.967Z,39.79
2023-05-19T14:54:27.445Z,39.88
2023-05-19T14:56:57.920Z,39.28
2023-05-19T14:59:28.398Z,39.23
2023-05-19T15:01:59.166Z,39.49
2023-05-19T15:04:30.639Z,39.82
2023-05-19T15:09:34.548Z,39.78
2023-05-19T15:12:04.405Z,39.29
2023-05-19T15:14:34.429Z,39.58
2023-05-19T15:17:04.810Z,39.37
2023-05-19T15:19:36.758Z,39.55
2023-05-19T15:22:07.938Z,39.42
2023-05-19T15:24:39.474Z,39.39
2023-05-19T15:27:11.088Z,39.89
2023-05-19T15:29:41.439Z,39.62
2023-05-19T15:32:12.602Z,39.96
2023-05-19T15:34:44.901Z,39.46
2023-05-19T15:37:15.564Z,39.66
2023-05-19T15:39:45.503Z,39.59
2023-05-19T15:42:16.188Z,39.88
2023-05-19T15:44:47.353Z,39.55
2023-05-19T15:47:17.403Z,39.65
2023-05-19T15:49:49.853Z,39.74
2023-05-19T15:52:19.794Z,39.66
2023-05-19T15:54:57.915Z,39.64
2023-05-19T15:57:34.195Z,39.48
2023-05-19T16:00:05.090Z,40.09
2023-05-19T16:02:36.337Z,39.91
2023-05-19T16:05:12.200Z,39.70
2023-05-19T16:07:43.078Z,39.80
2023-05-19T16:10:14.272Z,39.80
2023-05-19T16:12:46.036Z,39.74
2023-05-19T16:15:17.126Z,39.66
2023-05-19T16:17:47.360Z,39.56
2023-05-19T16:20:21.978Z,40.01
2023-05-19T16:22:54.707Z,39.58
2023-05-19T16:25:26.011Z,39.74
2023-05-19T16:27:58.474Z,39.65
2023-05-19T16:30:32.164Z,40.19
2023-05-19T16:33:08.389Z,39.62
2023-05-19T16:35:42.646Z,40.16
2023-05-19T16:38:16.270Z,39.76
2023-05-19T16:40:50.823Z,39.87
2023-05-19T16:43:21.952Z,39.89
2023-05-19T16:45:54.619Z,39.78
2023-05-19T16:48:26.124Z,39.88
2023-05-19T16:50:58.523Z,40.02
2023-05-19T16:53:31.559Z,40.05
2023-05-19T16:56:02.410Z,40.18
2023-05-19T16:58:32.143Z,39.99
2023-05-19T17:01:02.387Z,40.19
2023-05-19T17:03:33.519Z,39.76
2023-05-19T17:06:06.522Z,39.82
2023-05-19T17:08:36.611Z,40.20
2023-05-19T17:11:07.188Z,40.19
2023-05-19T17:13:37.922Z,40.00
2023-05-19T17:16:11.137Z,40.00
2023-05-19T17:18:42.842Z,40.10
2023-05-19T17:21:18.232Z,40.29
2023-05-19T17:23:50.245Z,40.23
2023-05-19T17:26:20.109Z,40.18
2023-05-19T17:28:50.069Z,39.75
2023-05-19T17:31:20.966Z,39.99
2023-05-19T17:33:50.988Z,40.23
2023-05-19T17:36:23.316Z,39.94
2023-05-19T17:38:56.932Z,40.01
2023-05-19T17:41:30.977Z,40.00
2023-05-19T17:44:12.781Z,40.38
2023-05-19T17:46:43.732Z,40.14
2023-05-19T17:49:17.511Z,40.07
2023-05-19T17:51:51.035Z,39.92
2023-05-19T17:54:25.032Z,40.29
2023-05-19T17:57:02.176Z,40.21
2023-05-19T17:59:35.510Z,39.97
2023-05-19T18:02:07.677Z,40.04
2023-05-19T18:04:42.728Z,40.23
2023-05-19T18:07:23.256Z,40.23
2023-05-19T18:10:01.410Z,40.20
2023-05-19T18:12:39.006Z,40.29
2023-05-19T18:15:21.945Z,40.04
2023-05-19T18:18:06.930Z,40.02
2023-05-19T18:20:46.548Z,40.25
2023-05-19T18:23:26.863Z,39.92
2023-05-19T18:26:01.993Z,40.06
2023-05-19T18:28:35.960Z,40.28
2023-05-19T18:31:17.115Z,40.44
2023-05-19T18:33:52.250Z,40.03
2023-05-19T18:36:25.951Z,40.19
2023-05-19T18:39:04.339Z,40.32
2023-05-19T18:41:45.997Z,39.95
2023-05-19T18:44:19.683Z,40.16
2023-05-19T18:46:53.490Z,40.39
2023-05-19T18:49:28.462Z,40.27
2023-05-19T18:52:03.568Z,40.18
2023-05-19T18:54:40.860Z,40.06
2023-05-19T18:57:13.274Z,40.02
2023-05-19T18:59:48.063Z,40.25
2023-05-19T19:02:23.149Z,40.31
2023-05-19T19:05:11.001Z,39.98
2023-05-19T19:07:52.906Z,40.00
2023-05-19T19:10:43.682Z,40.22
2023-05-19T19:13:15.280Z,40.29
2023-05-19T19:15:54.131Z,39.75
2023-05-19T19:18:33.176Z,40.41
2023-05-19T19:21:06.671Z,40.43
2023-05-19T19:23:48.461Z,40.38
2023-05-19T19:26:23.671Z,40.03
2023-05-19T19:28:56.766Z,40.49
2023-05-19T19:31:34.580Z,40.44
2023-05-19T19:34:12.004Z,40.28
2023-05-19T19:36:48.862Z,40.24
2023-05-19T19:39:23.336Z,40.07
2023-05-19T19:42:01.651Z,40.21
2023-05-19T19:44:35.180Z,40.48
2023-05-19T19:47:09.848Z,40.52
2023-05-19T19:49:46.761Z,40.28
2023-05-19T19:52:20.735Z,40.30
2023-05-19T19:54:55.179Z,40.36
2023-05-19T19:57:38.049Z,40.61
2023-05-19T20:00:22.336Z,40.44
2023-05-19T20:05:38.222Z,39.96
2023-05-19T20:08:09.730Z,40.16
2023-05-19T20:10:47.044Z,40.15
2023-05-19T20:13:29.524Z,40.30
2023-05-19T20:16:02.226Z,40.13
2023-05-19T20:18:36.605Z,40.38
2023-05-19T20:21:12.970Z,40.25
2023-05-19T20:23:48.095Z,40.38
2023-05-19T20:26:21.110Z,40.51
2023-05-19T20:29:08.388Z,40.46
2023-05-19T20:31:43.256Z,40.42
2023-05-19T20:34:23.670Z,40.28
2023-05-19T20:36:59.864Z,40.53
2023-05-19T20:39:32.530Z,40.57
2023-05-19T20:42:07.265Z,40.30
2023-05-19T20:44:43.986Z,40.41
2023-05-19T20:47:21.296Z,40.58
2023-05-19T20:49:55.200Z,40.32
2023-05-19T20:52:34.630Z,40.34
2023-05-19T20:55:07.363Z,40.54
2023-05-19T20:57:41.505Z,40.45
2023-05-19T21:00:25.992Z,40.61
2023-05-19T21:03:00.620Z,40.66
2023-05-19T21:05:32.602Z,40.74
2023-05-19T21:08:04.355Z,40.78
2023-05-19T21:10:35.463Z,40.61
2023-05-19T21:13:08.323Z,40.75
2023-05-19T21:15:41.508Z,40.95
2023-05-19T21:18:13.448Z,40.68
2023-05-19T21:20:43.741Z,40.61
2023-05-19T21:23:14.093Z,40.74
2023-05-19T21:25:45.554Z,40.58
2023-05-19T21:28:16.716Z,40.88
2023-05-19T21:30:54.395Z,40.80
2023-05-19T21:33:25.205Z,40.78
2023-05-19T21:35:56.252Z,40.72
2023-05-19T21:38:27.978Z,40.90
2023-05-19T21:40:59.478Z,40.79
2023-05-19T21:43:29.930Z,40.71
2023-05-19T21:46:02.680Z,40.89
2023-05-19T21:48:33.574Z,40.99
2023-05-19T21:51:06.239Z,40.98
2023-05-19T21:53:40.797Z,41.05
2023-05-19T21:56:13.601Z,40.94
2023-05-19T21:58:46.156Z,41.11
2023-05-19T22:01:22.016Z,40.80
2023-05-19T22:03:52.945Z,41.00
2023-05-19T22:06:24.599Z,41.07
2023-05-19T22:08:59.634Z,40.90
2023-05-19T22:11:34.173Z,41.04
2023-05-19T22:14:05.173Z,41.14
2023-05-19T22:16:40.907Z,41.00
2023-05-19T22:19:18.095Z,41.20
2023-05-19T22:21:58.402Z,40.94
2023-05-19T22:24:33.037Z,41.31
2023-05-19T22:27:02.964Z,41.21
2023-05-19T22:29:33.444Z,40.90
2023-05-19T22:32:08.318Z,40.95
2023-05-19T22:34:38.212Z,41.04
2023-05-19T22:37:09.585Z,41.08
2023-05-19T22:39:41.726Z,41.25
2023-05-19T22:42:12.012Z,41.27
2023-05-19T22:44:42.652Z,41.11
2023-05-19T22:47:15.401Z,41.13
2023-05-19T22:49:46.420Z,41.27
2023-05-19T22:52:17.633Z,41.15
2023-05-19T22:54:48.718Z,40.99
2023-05-19T22:57:20.401Z,41.19
2023-05-19T22:59:50.796Z,41.12
2023-05-19T23:02:24.495Z,41.18
2023-05-19T23:04:55.218Z,41.32
2023-05-19T23:07:25.162Z,41.39
2023-05-19T23:09:55.370Z,41.27
2023-05-19T23:12:25.589Z,41.23
2023-05-19T23:14:57.115Z,41.14
2023-05-19T23:17:28.786Z,41.21
2023-05-19T23:19:59.174Z,41.15
2023-05-19T23:22:30.843Z,41.24
2023-05-19T23:25:02.326Z,41.21
2023-05-19T23:27:32.773Z,41.08
2023-05-19T23:30:03.911Z,41.13
2023-05-19T23:32:36.630Z,41.37
2023-05-19T23:35:16.234Z,41.18
2023-05-19T23:37:47.330Z,41.37
2023-05-19T23:40:18.161Z,41.25
2023-05-19T23:42:48.790Z,41.27
2023-05-19T23:45:19.510Z,41.25
2023-05-19T23:47:52.057Z,41.41
2023-05-19T23:50:22.065Z,41.27
2023-05-19T23:52:53.174Z,41.34
2023-05-19T23:55:25.175Z,41.29
2023-05-19T23:57:55.324Z,41.40
